createdAt,value
2022-12-15T00:01:09.028Z,116.40
2022-12-15T00:04:13.861Z,110.32
2022-12-15T00:07:18.494Z,118.65
2022-12-15T00:10:24.051Z,121.65
2022-12-15T00:13:31.931Z,115.20
2022-12-15T00:16:37.265Z,114.05
2022-12-15T00:19:41.741Z,104.70
2022-12-15T00:22:46.609Z,97.20
2022-12-15T00:25:51.384Z,103.32
2022-12-15T00:28:57.807Z,104.35
2022-12-15T00:32:02.651Z,110.00
2022-12-15T00:35:07.301Z,125.15
2022-12-15T00:38:12.577Z,116.25
2022-12-15T00:41:00.224Z,116.80
2022-12-15T00:43:49.916Z,123.50
2022-12-15T00:46:54.666Z,115.95
2022-12-15T00:49:59.391Z,115.82
2022-12-15T00:53:04.387Z,116.28
2022-12-15T00:56:08.894Z,112.75
2022-12-15T00:59:15.199Z,104.53
2022-12-15T01:02:21.590Z,124.22
2022-12-15T01:05:26.779Z,117.78
2022-12-15T01:08:31.316Z,128.15
2022-12-15T01:11:36.199Z,124.05
2022-12-15T01:14:42.779Z,128.77
2022-12-15T01:17:47.672Z,137.45
2022-12-15T01:20:35.476Z,112.72
2022-12-15T01:23:23.304Z,118.13
2022-12-15T01:26:10.876Z,124.22
2022-12-15T01:28:58.227Z,122.35
2022-12-15T01:31:49.904Z,117.47
2022-12-15T01:34:37.837Z,126.03
2022-12-15T01:37:25.237Z,126.75
2022-12-15T01:40:33.558Z,124.43
2022-12-15T01:43:23.612Z,125.05
2022-12-15T01:46:12.689Z,117.57
2022-12-15T01:49:12.986Z,134.38
2022-12-15T01:52:02.752Z,123.35
2022-12-15T01:54:53.505Z,128.45
2022-12-15T01:57:41.869Z,142.00
2022-12-15T02:00:29.718Z,135.40
2022-12-15T02:03:17.224Z,129.75
2022-12-15T02:06:07.446Z,134.00
2022-12-15T02:09:00.218Z,123.45
2022-12-15T02:12:00.675Z,128.85
2022-12-15T02:15:00.038Z,115.35
2022-12-15T02:17:58.190Z,114.68
2022-12-15T02:20:53.401Z,128.45
2022-12-15T02:24:11.676Z,112.03
2022-12-15T02:27:30.015Z,127.20
2022-12-15T02:30:22.861Z,107.60
2022-12-15T02:33:21.834Z,117.53
2022-12-15T02:36:17.795Z,121.22
2022-12-15T02:39:06.469Z,124.75
2022-12-15T02:41:54.018Z,118.75
2022-12-15T02:44:46.529Z,117.93
2022-12-15T02:47:46.108Z,129.50
2022-12-15T02:50:53.604Z,135.10
2022-12-15T02:54:15.703Z,132.93
2022-12-15T02:57:08.734Z,129.15
2022-12-15T03:00:01.813Z,123.90
2022-12-15T03:02:53.984Z,134.57
2022-12-15T03:05:41.712Z,127.93
2022-12-15T03:08:30.050Z,126.55
2022-12-15T03:11:17.409Z,130.73
2022-12-15T03:14:05.351Z,123.95
2022-12-15T03:16:52.992Z,121.28
2022-12-15T03:19:42.223Z,125.68
2022-12-15T03:22:29.858Z,111.32
2022-12-15T03:25:17.446Z,117.35
2022-12-15T03:28:04.983Z,117.78
2022-12-15T03:30:52.347Z,121.63
2022-12-15T03:33:41.055Z,110.75
2022-12-15T03:36:30.050Z,105.25
2022-12-15T03:39:17.310Z,100.00
2022-12-15T03:42:04.762Z,110.78
2022-12-15T03:44:52.184Z,106.82
2022-12-15T03:47:42.648Z,110.93
2022-12-15T03:50:30.972Z,113.93
2022-12-15T03:53:19.883Z,107.45
2022-12-15T03:56:08.279Z,94.22
2022-12-15T03:58:56.125Z,99.57
2022-12-15T04:01:49.148Z,101.60
2022-12-15T04:04:37.180Z,95.18
2022-12-15T04:07:24.467Z,88.13
2022-12-15T04:10:14.213Z,106.55
2022-12-15T04:13:02.657Z,101.20
2022-12-15T04:15:50.089Z,92.65
2022-12-15T04:18:37.789Z,88.18
2022-12-15T04:21:25.353Z,89.20
2022-12-15T04:24:30.026Z,102.20
2022-12-15T04:27:36.658Z,106.07
2022-12-15T04:30:41.361Z,114.70
2022-12-15T04:33:46.078Z,87.03
2022-12-15T04:36:52.218Z,90.10
2022-12-15T04:39:59.713Z,90.40
2022-12-15T04:43:06.852Z,86.57
2022-12-15T04:46:11.898Z,84.05
2022-12-15T04:49:16.781Z,85.10
2022-12-15T04:52:22.062Z,88.53
2022-12-15T04:55:27.742Z,96.45
2022-12-15T04:58:34.166Z,98.45
2022-12-15T05:01:38.946Z,88.55
2022-12-15T05:04:43.945Z,82.53
2022-12-15T05:07:49.065Z,91.43
2022-12-15T05:10:53.747Z,80.82
2022-12-15T05:14:00.180Z,87.63
2022-12-15T05:17:04.917Z,87.45
2022-12-15T05:20:09.594Z,84.00
2022-12-15T05:23:15.490Z,92.13
2022-12-15T05:26:20.323Z,91.80
2022-12-15T05:29:27.396Z,90.47
2022-12-15T05:32:14.719Z,91.60
2022-12-15T05:35:02.432Z,87.78
2022-12-15T05:37:50.122Z,79.32
2022-12-15T05:40:37.420Z,90.68
2022-12-15T05:43:26.669Z,82.80
2022-12-15T05:46:15.969Z,109.40
2022-12-15T05:49:05.005Z,114.75
2022-12-15T05:51:52.695Z,130.63
2022-12-15T05:54:40.466Z,99.72
2022-12-15T05:57:28.103Z,88.15
2022-12-15T06:00:16.453Z,100.50
2022-12-15T06:03:05.506Z,83.40
2022-12-15T06:05:56.450Z,86.50
2022-12-15T06:08:44.654Z,95.20
2022-12-15T06:11:32.426Z,91.47
2022-12-15T06:14:20.105Z,98.15
2022-12-15T06:17:07.813Z,89.55
2022-12-15T06:19:56.575Z,92.85
2022-12-15T06:22:49.546Z,87.38
2022-12-15T06:25:37.388Z,89.68
2022-12-15T06:28:25.218Z,89.35
2022-12-15T06:31:14.592Z,81.80
2022-12-15T06:34:04.688Z,86.15
2022-12-15T06:36:53.851Z,87.45
2022-12-15T06:39:41.221Z,79.38
2022-12-15T06:42:28.513Z,84.35
2022-12-15T06:45:16.051Z,70.32
2022-12-15T06:48:04.001Z,87.88
2022-12-15T06:50:52.208Z,74.88
2022-12-15T06:53:42.700Z,82.65
2022-12-15T06:56:34.112Z,79.97
2022-12-15T06:59:22.404Z,80.13
2022-12-15T07:02:17.982Z,77.50
2022-12-15T07:05:09.371Z,107.03
2022-12-15T07:07:56.694Z,130.05
2022-12-15T07:10:45.991Z,98.32
2022-12-15T07:13:33.804Z,104.57
2022-12-15T07:16:23.475Z,96.90
2022-12-15T07:19:13.504Z,85.10
2022-12-15T07:22:01.542Z,96.40
2022-12-15T07:24:48.888Z,84.38
2022-12-15T07:27:37.672Z,96.90
2022-12-15T07:30:25.118Z,83.88
2022-12-15T07:33:12.507Z,89.97
2022-12-15T07:36:00.663Z,89.22
2022-12-15T07:38:50.669Z,85.72
2022-12-15T07:41:40.430Z,84.93
2022-12-15T07:44:29.717Z,73.47
2022-12-15T07:47:17.450Z,87.60
2022-12-15T07:50:06.011Z,71.68
2022-12-15T07:52:53.691Z,71.63
2022-12-15T07:56:05.556Z,76.05
2022-12-15T07:58:49.538Z,69.15
2022-12-15T08:01:38.741Z,68.70
2022-12-15T08:04:26.831Z,69.20
2022-12-15T08:07:14.530Z,67.85
2022-12-15T08:10:01.871Z,77.03
2022-12-15T08:12:49.731Z,77.38
2022-12-15T08:15:38.578Z,75.15
2022-12-15T08:18:27.518Z,169.07
2022-12-15T08:21:15.386Z,92.50
2022-12-15T08:24:03.184Z,105.63
2022-12-15T08:26:51.222Z,87.28
2022-12-15T08:29:54.049Z,84.55
2022-12-15T08:32:41.555Z,67.25
2022-12-15T08:35:55.255Z,76.85
2022-12-15T08:38:39.341Z,74.60
2022-12-15T08:41:29.028Z,70.50
2022-12-15T08:44:17.095Z,83.90
2022-12-15T08:47:04.855Z,119.80
2022-12-15T08:49:53.077Z,89.90
2022-12-15T08:52:55.217Z,88.40
2022-12-15T08:55:50.125Z,74.60
2022-12-15T08:58:38.320Z,83.57
2022-12-15T09:01:27.342Z,79.90
2022-12-15T09:04:15.543Z,53.05
2022-12-15T09:07:03.099Z,64.82
2022-12-15T09:09:52.050Z,75.95
2022-12-15T09:12:39.601Z,65.68
2022-12-15T09:15:59.865Z,55.80
2022-12-15T09:18:35.815Z,46.58
2022-12-15T09:21:26.768Z,70.28
2022-12-15T09:24:23.252Z,70.72
2022-12-15T09:27:18.381Z,74.38
2022-12-15T09:30:07.186Z,39.00
2022-12-15T09:32:54.814Z,39.30
2022-12-15T09:35:42.209Z,51.03
2022-12-15T09:38:30.073Z,31.15
2022-12-15T09:41:24.180Z,90.22
2022-12-15T09:44:15.596Z,38.92
2022-12-15T09:47:14.430Z,44.42
2022-12-15T09:50:05.278Z,31.88
2022-12-15T09:52:56.843Z,61.35
2022-12-15T09:55:46.835Z,59.33
2022-12-15T09:58:46.126Z,49.70
2022-12-15T10:01:46.753Z,43.20
2022-12-15T10:04:44.640Z,33.10
2022-12-15T10:07:38.126Z,37.15
2022-12-15T10:10:32.584Z,32.90
2022-12-15T10:13:26.123Z,31.50
2022-12-15T10:16:22.422Z,36.25
2022-12-15T10:19:17.793Z,33.95
2022-12-15T10:22:05.714Z,26.73
2022-12-15T10:25:10.997Z,41.05
2022-12-15T10:28:17.656Z,29.45
2022-12-15T10:31:17.798Z,27.77
2022-12-15T10:34:12.691Z,25.92
2022-12-15T10:37:00.881Z,30.88
2022-12-15T10:39:51.020Z,29.83
2022-12-15T10:42:48.443Z,27.83
2022-12-15T10:45:39.999Z,29.63
2022-12-15T10:48:27.730Z,31.05
2022-12-15T10:51:29.121Z,29.63
2022-12-15T10:54:18.385Z,27.55
2022-12-15T10:57:18.442Z,23.60
2022-12-15T11:00:27.335Z,34.35
2022-12-15T11:03:24.106Z,28.70
2022-12-15T11:06:18.137Z,32.38
2022-12-15T11:09:28.437Z,25.60
2022-12-15T11:12:37.540Z,28.35
2022-12-15T11:15:50.733Z,27.27
2022-12-15T11:18:43.537Z,25.38
2022-12-15T11:21:34.116Z,32.03
2022-12-15T11:24:30.767Z,29.67
2022-12-15T11:27:26.110Z,30.08
2022-12-15T11:30:15.885Z,25.95
2022-12-15T11:33:04.211Z,28.77
2022-12-15T11:36:09.655Z,30.45
2022-12-15T11:39:04.255Z,27.65
2022-12-15T11:42:00.219Z,30.30
2022-12-15T11:44:58.715Z,34.67
2022-12-15T11:47:51.136Z,30.17
2022-12-15T11:50:55.115Z,31.52
2022-12-15T11:54:05.039Z,30.10
2022-12-15T11:57:00.770Z,32.13
2022-12-15T12:00:03.364Z,33.30
2022-12-15T12:03:16.567Z,27.65
2022-12-15T12:06:12.948Z,26.02
2022-12-15T12:09:19.626Z,26.77
2022-12-15T12:12:16.832Z,28.33
2022-12-15T12:18:12.953Z,24.27
2022-12-15T12:21:06.074Z,25.88
2022-12-15T12:23:59.147Z,29.45
2022-12-15T12:26:48.465Z,31.42
2022-12-15T12:29:45.309Z,34.33
2022-12-15T12:32:44.516Z,40.55
2022-12-15T12:35:39.301Z,39.35
2022-12-15T12:38:32.568Z,32.50
2022-12-15T12:41:32.299Z,30.95
2022-12-15T12:44:30.297Z,27.60
2022-12-15T12:47:25.582Z,25.45
2022-12-15T12:50:20.429Z,26.23
2022-12-15T12:53:26.175Z,23.25
2022-12-15T12:56:39.681Z,23.15
2022-12-15T12:59:37.766Z,28.35
2022-12-15T13:02:55.697Z,24.90
2022-12-15T13:05:45.209Z,39.47
2022-12-15T13:08:52.271Z,29.50
2022-12-15T13:12:00.837Z,25.25
2022-12-15T13:14:51.933Z,29.48
2022-12-15T13:17:45.484Z,29.95
2022-12-15T13:20:38.405Z,24.58
2022-12-15T13:23:42.657Z,26.55
2022-12-15T13:26:32.547Z,24.10
2022-12-15T13:29:23.826Z,27.30
2022-12-15T13:32:32.718Z,27.45
2022-12-15T13:35:27.403Z,26.42
2022-12-15T13:38:19.794Z,29.63
2022-12-15T13:41:23.860Z,30.00
2022-12-15T13:44:16.916Z,33.28
2022-12-15T13:47:11.788Z,30.98
2022-12-15T13:50:03.003Z,29.65
2022-12-15T13:56:15.342Z,32.55
2022-12-15T13:59:08.014Z,29.63
2022-12-15T14:01:56.056Z,25.65
2022-12-15T14:04:43.487Z,29.98
2022-12-15T14:07:31.148Z,24.70
2022-12-15T14:10:24.940Z,27.17
2022-12-15T14:13:16.439Z,29.17
2022-12-15T14:16:08.428Z,29.08
2022-12-15T14:19:11.478Z,30.13
2022-12-15T14:21:59.725Z,30.38
2022-12-15T14:24:49.938Z,36.47
2022-12-15T14:27:39.501Z,30.13
2022-12-15T14:30:29.606Z,29.60
2022-12-15T14:33:19.707Z,30.88
2022-12-15T14:36:11.268Z,31.08
2022-12-15T14:39:03.028Z,25.95
2022-12-15T14:41:52.652Z,27.13
2022-12-15T14:44:49.969Z,28.65
2022-12-15T14:47:39.040Z,33.28
2022-12-15T14:50:27.438Z,28.10
2022-12-15T14:53:23.855Z,23.35
2022-12-15T14:56:30.525Z,27.42
2022-12-15T14:59:20.903Z,23.25
2022-12-15T15:02:16.121Z,29.95
2022-12-15T15:05:07.805Z,28.27
2022-12-15T15:07:57.660Z,39.28
2022-12-15T15:10:45.382Z,34.78
2022-12-15T15:13:40.764Z,28.95
2022-12-15T15:16:29.192Z,28.20
2022-12-15T15:19:24.797Z,28.98
2022-12-15T15:22:28.585Z,37.87
2022-12-15T15:25:39.961Z,31.52
2022-12-15T15:28:30.731Z,27.73
2022-12-15T15:31:36.676Z,34.55
2022-12-15T15:34:29.144Z,35.92
2022-12-15T15:37:22.958Z,30.42
2022-12-15T15:40:15.891Z,34.40
2022-12-15T15:43:08.938Z,31.58
2022-12-15T15:46:06.394Z,37.53
2022-12-15T15:48:57.105Z,33.13
2022-12-15T15:51:46.046Z,88.25
2022-12-15T15:54:36.307Z,131.82
2022-12-15T15:57:24.688Z,177.20
2022-12-15T16:00:21.629Z,149.52
2022-12-15T16:03:09.341Z,132.85
2022-12-15T16:05:57.398Z,133.85
2022-12-15T16:08:47.963Z,129.35
2022-12-15T16:11:36.529Z,121.65
2022-12-15T16:14:24.298Z,109.00
2022-12-15T16:17:20.528Z,69.80
2022-12-15T16:20:09.679Z,69.57
2022-12-15T16:23:00.741Z,54.00
2022-12-15T16:25:52.922Z,52.92
2022-12-15T16:28:40.743Z,51.47
2022-12-15T16:31:35.645Z,55.28
2022-12-15T16:34:27.170Z,53.03
2022-12-15T16:37:26.190Z,46.97
2022-12-15T16:40:19.358Z,44.25
2022-12-15T16:43:15.873Z,41.30
2022-12-15T16:46:03.571Z,38.60
2022-12-15T16:48:51.907Z,45.75
2022-12-15T16:51:41.626Z,44.42
2022-12-15T16:54:32.339Z,44.60
2022-12-15T16:57:19.810Z,42.35
2022-12-15T17:00:20.186Z,40.55
2022-12-15T17:03:07.779Z,35.20
2022-12-15T17:05:57.568Z,37.58
2022-12-15T17:08:47.763Z,43.85
2022-12-15T17:11:35.160Z,42.88
2022-12-15T17:14:23.363Z,61.35
2022-12-15T17:17:15.570Z,67.68
2022-12-15T17:23:16.818Z,131.25
2022-12-15T17:26:27.968Z,112.38
2022-12-15T17:29:17.688Z,120.03
2022-12-15T17:32:07.047Z,110.03
2022-12-15T17:34:56.057Z,108.03
2022-12-15T17:37:44.896Z,90.00
2022-12-15T17:40:32.226Z,87.07
2022-12-15T17:43:27.156Z,91.03
2022-12-15T17:46:17.487Z,103.65
2022-12-15T17:49:06.217Z,80.20
2022-12-15T17:51:55.952Z,73.40
2022-12-15T17:54:43.481Z,76.53
2022-12-15T17:57:32.106Z,75.30
2022-12-15T18:00:22.960Z,69.63
2022-12-15T18:03:10.925Z,66.72
2022-12-15T18:05:58.809Z,62.92
2022-12-15T18:08:47.946Z,69.97
2022-12-15T18:11:35.525Z,62.92
2022-12-15T18:14:23.477Z,66.30
2022-12-15T18:17:11.111Z,56.33
2022-12-15T18:19:58.842Z,60.80
2022-12-15T18:22:47.042Z,62.80
2022-12-15T18:25:35.896Z,49.05
2022-12-15T18:28:25.428Z,52.22
2022-12-15T18:31:21.472Z,54.75
2022-12-15T18:34:13.924Z,52.50
2022-12-15T18:37:01.797Z,51.53
2022-12-15T18:39:50.769Z,47.25
2022-12-15T18:42:40.742Z,47.25
2022-12-15T18:45:28.718Z,42.65
2022-12-15T18:48:18.330Z,46.55
2022-12-15T18:51:17.555Z,42.70
2022-12-15T18:54:05.283Z,47.85
2022-12-15T18:56:53.109Z,55.17
2022-12-15T18:59:43.701Z,59.40
2022-12-15T19:02:31.559Z,50.17
2022-12-15T19:05:29.410Z,56.05
2022-12-15T19:08:24.630Z,65.93
2022-12-15T19:11:18.323Z,70.10
2022-12-15T19:14:31.764Z,118.15
2022-12-15T19:17:40.127Z,92.88
2022-12-15T19:20:45.374Z,81.47
2022-12-15T19:23:33.759Z,79.63
2022-12-15T19:26:21.419Z,101.20
2022-12-15T19:29:18.090Z,81.85
2022-12-15T19:32:05.735Z,94.80
2022-12-15T19:34:54.622Z,93.70
2022-12-15T19:37:44.493Z,82.43
2022-12-15T19:40:34.498Z,77.85
2022-12-15T19:43:23.508Z,77.38
2022-12-15T19:46:14.238Z,78.30
2022-12-15T19:49:01.559Z,70.25
2022-12-15T19:51:50.369Z,67.68
2022-12-15T19:54:37.969Z,87.15
2022-12-15T19:57:25.587Z,114.32
2022-12-15T20:00:17.648Z,121.90
2022-12-15T20:03:05.523Z,121.78
2022-12-15T20:05:55.554Z,141.10
2022-12-15T20:08:46.381Z,114.47
2022-12-15T20:11:34.877Z,96.22
2022-12-15T20:14:22.421Z,100.10
2022-12-15T20:17:10.175Z,94.72
2022-12-15T20:19:57.587Z,94.25
2022-12-15T20:22:47.372Z,96.20
2022-12-15T20:25:38.233Z,102.30
2022-12-15T20:28:28.077Z,134.43
2022-12-15T20:31:17.765Z,124.20
2022-12-15T20:34:05.448Z,125.60
2022-12-15T20:36:52.958Z,132.27
2022-12-15T20:39:41.652Z,138.55
2022-12-15T20:42:31.006Z,126.32
2022-12-15T20:45:20.984Z,122.60
2022-12-15T20:48:13.325Z,131.13
2022-12-15T20:51:04.501Z,141.20
2022-12-15T20:53:58.434Z,123.88
2022-12-15T20:56:47.768Z,133.82
2022-12-15T20:59:36.677Z,142.00
2022-12-15T21:02:25.254Z,139.50
2022-12-15T21:05:20.788Z,169.20
2022-12-15T21:08:15.574Z,164.60
2022-12-15T21:11:11.759Z,154.02
2022-12-15T21:14:04.213Z,146.98
2022-12-15T21:16:53.927Z,183.07
2022-12-15T21:19:42.621Z,209.60
2022-12-15T21:22:30.888Z,185.32
2022-12-15T21:25:24.840Z,168.15
2022-12-15T21:28:12.922Z,143.55
2022-12-15T21:31:01.851Z,156.50
2022-12-15T21:33:51.007Z,138.52
2022-12-15T21:36:41.326Z,134.75
2022-12-15T21:39:33.635Z,136.50
2022-12-15T21:42:22.159Z,145.05
2022-12-15T21:45:15.780Z,131.98
2022-12-15T21:48:20.508Z,126.22
2022-12-15T21:51:13.941Z,129.68
2022-12-15T21:54:02.687Z,135.85
2022-12-15T21:56:51.078Z,160.68
2022-12-15T21:59:40.068Z,151.18
2022-12-15T22:02:28.464Z,137.82
2022-12-15T22:05:19.024Z,143.93
2022-12-15T22:08:15.734Z,136.63
2022-12-15T22:11:03.484Z,129.60
2022-12-15T22:13:52.518Z,125.82
2022-12-15T22:16:43.162Z,136.98
2022-12-15T22:19:30.660Z,123.68
2022-12-15T22:22:18.437Z,125.45
2022-12-15T22:25:09.385Z,133.75
2022-12-15T22:27:57.880Z,139.82
2022-12-15T22:30:46.071Z,142.32
2022-12-15T22:33:33.650Z,162.25
2022-12-15T22:36:21.506Z,164.98
2022-12-15T22:39:11.105Z,133.30
2022-12-15T22:42:01.288Z,136.95
2022-12-15T22:44:48.992Z,136.43
2022-12-15T22:47:38.657Z,148.80
2022-12-15T22:50:27.555Z,169.38
2022-12-15T22:53:15.768Z,139.80
2022-12-15T22:56:07.906Z,144.02
2022-12-15T22:59:01.005Z,150.48
2022-12-15T23:01:48.708Z,143.43
2022-12-15T23:04:36.785Z,148.05
2022-12-15T23:07:24.178Z,143.77
2022-12-15T23:10:31.016Z,158.73
2022-12-15T23:13:19.415Z,141.40
2022-12-15T23:16:22.206Z,129.90
2022-12-15T23:19:23.521Z,133.75
2022-12-15T23:22:11.271Z,130.55
2022-12-15T23:24:58.753Z,133.55
2022-12-15T23:27:45.961Z,117.40
2022-12-15T23:30:33.198Z,121.30
2022-12-15T23:33:22.710Z,111.97
2022-12-15T23:36:11.020Z,127.45
2022-12-15T23:38:59.049Z,119.43
2022-12-15T23:41:46.339Z,116.90
2022-12-15T23:44:33.920Z,117.82
2022-12-15T23:47:21.662Z,108.32
2022-12-15T23:50:11.306Z,109.55
2022-12-15T23:52:58.897Z,103.47
2022-12-15T23:55:46.267Z,111.03
2022-12-15T23:58:33.907Z,115.05
